createdAt,value
2019-02-12T00:00:31.451Z,97873.09
2019-02-12T00:01:32.843Z,97876.59
2019-02-12T00:02:34.262Z,97874.42
2019-02-12T00:03:35.607Z,97876.25
2019-02-12T00:04:37.109Z,97875.76
2019-02-12T00:05:38.356Z,97877.09
2019-02-12T00:06:39.643Z,97875.76
2019-02-12T00:07:41.001Z,97878.42
2019-02-12T00:08:42.242Z,97878.42
2019-02-12T00:09:43.564Z,97872.79
2019-02-12T00:10:45.026Z,97872.79
2019-02-12T00:11:46.354Z,97883.94
2019-02-12T00:12:47.596Z,97874.62
2019-02-12T00:13:48.872Z,97882.11
2019-02-12T00:14:50.246Z,97879.95
2019-02-12T00:15:52.665Z,97873.48
2019-02-12T00:16:53.983Z,97870.82
2019-02-12T00:17:55.277Z,97877.81
2019-02-12T00:18:56.740Z,97870.82
2019-02-12T00:19:58.146Z,97877.81
2019-02-12T00:20:59.568Z,97877.81
2019-02-12T00:22:01.170Z,97878.31
2019-02-12T00:23:03.527Z,97872.48
2019-02-12T00:24:04.951Z,97874.92
2019-02-12T00:25:07.157Z,97878.61
2019-02-12T00:26:08.505Z,97871.16
2019-02-12T00:27:09.783Z,97877.28
2019-02-12T00:28:11.033Z,97877.28
2019-02-12T00:29:12.379Z,97872.79
2019-02-12T00:30:13.744Z,97882.11
2019-02-12T00:31:15.163Z,97875.76
2019-02-12T00:32:16.556Z,97883.44
2019-02-12T00:33:18.111Z,97873.81
2019-02-12T00:34:19.401Z,97883.94
2019-02-12T00:35:20.849Z,97883.14
2019-02-12T00:36:22.461Z,97883.94
2019-02-12T00:37:23.755Z,97879.84
2019-02-12T00:38:25.149Z,97883.02
2019-02-12T00:39:26.623Z,97889.98
2019-02-12T00:40:27.885Z,97883.52
2019-02-12T00:41:29.157Z,97883.52
2019-02-12T00:42:30.744Z,97884.55
2019-02-12T00:43:32.025Z,97881.89
2019-02-12T00:44:33.255Z,97881.89
2019-02-12T00:45:34.505Z,97887.41
2019-02-12T00:46:36.042Z,97887.41
2019-02-12T00:47:37.877Z,97893.56
2019-02-12T00:48:39.379Z,97887.94
2019-02-12T00:49:40.610Z,97888.13
2019-02-12T00:50:41.857Z,97884.63
2019-02-12T00:51:43.189Z,97892.63
2019-02-12T00:52:44.622Z,97898.25
2019-02-12T00:53:45.862Z,97891.59
2019-02-12T00:54:47.576Z,97889.27
2019-02-12T00:55:48.906Z,97895.39
2019-02-12T00:56:50.240Z,97899.38
2019-02-12T00:57:51.678Z,97899.91
2019-02-12T00:58:53.250Z,97899.91
2019-02-12T00:59:54.492Z,97899.91
2019-02-12T01:00:55.802Z,97890.70
2019-02-12T01:01:58.020Z,97901.12
2019-02-12T01:02:59.590Z,97902.77
2019-02-12T01:04:00.902Z,97902.77
2019-02-12T01:05:02.149Z,97910.14
2019-02-12T01:06:04.542Z,97908.51
2019-02-12T01:07:05.942Z,97905.84
2019-02-12T01:08:07.332Z,97910.03
2019-02-12T01:09:08.746Z,97910.56
2019-02-12T01:10:10.139Z,97914.22
2019-02-12T01:11:11.406Z,97914.44
2019-02-12T01:12:13.118Z,97911.78
2019-02-12T01:13:14.459Z,97908.59
2019-02-12T01:14:15.782Z,97922.20
2019-02-12T01:15:17.257Z,97920.57
2019-02-12T01:16:18.774Z,97911.25
2019-02-12T01:17:20.142Z,97921.41
2019-02-12T01:18:21.616Z,97919.95
2019-02-12T01:19:23.125Z,97927.95
2019-02-12T01:20:24.359Z,97928.44
2019-02-12T01:21:26.520Z,97928.44
2019-02-12T01:22:28.147Z,97925.94
2019-02-12T01:23:29.661Z,97922.31
2019-02-12T01:24:30.936Z,97922.31
2019-02-12T01:25:32.234Z,97922.92
2019-02-12T01:26:33.910Z,97921.30
2019-02-12T01:27:35.213Z,97931.63
2019-02-12T01:28:36.617Z,97925.63
2019-02-12T01:29:37.955Z,97927.99
2019-02-12T01:30:39.273Z,97927.99
2019-02-12T01:31:40.635Z,97926.16
2019-02-12T01:32:41.980Z,97917.16
2019-02-12T01:33:43.399Z,97924.98
2019-02-12T01:34:44.651Z,97921.30
2019-02-12T01:35:45.970Z,97921.30
2019-02-12T01:36:47.331Z,97916.27
2019-02-12T01:37:48.633Z,97926.73
2019-02-12T01:38:49.895Z,97926.73
2019-02-12T01:39:51.172Z,97932.47
2019-02-12T01:40:52.501Z,97927.98
2019-02-12T01:41:53.908Z,97935.44
2019-02-12T01:42:55.195Z,97931.14
2019-02-12T01:43:56.742Z,97916.00
2019-02-12T01:44:58.112Z,97935.44
2019-02-12T01:45:59.343Z,97935.44
2019-02-12T01:47:00.832Z,97928.48
2019-02-12T01:48:02.168Z,97933.80
2019-02-12T01:49:03.430Z,97930.83
2019-02-12T01:50:07.082Z,97934.30
2019-02-12T01:51:08.398Z,97928.66
2019-02-12T01:52:09.684Z,97926.73
2019-02-12T01:53:11.906Z,97940.15
2019-02-12T01:54:13.482Z,97929.31
2019-02-12T01:55:14.749Z,97934.11
2019-02-12T01:56:16.004Z,97934.11
2019-02-12T01:57:17.340Z,97946.69
2019-02-12T01:58:18.783Z,97937.91
2019-02-12T01:59:20.182Z,97944.56
2019-02-12T02:00:21.444Z,97931.14
2019-02-12T02:01:22.854Z,97949.47
2019-02-12T02:02:24.522Z,97946.50
2019-02-12T02:03:25.793Z,97946.50
2019-02-12T02:04:27.132Z,97948.22
2019-02-12T02:05:28.700Z,97950.04
2019-02-12T02:06:30.015Z,97950.04
2019-02-12T02:07:31.312Z,97954.56
2019-02-12T02:08:32.586Z,97951.90
2019-02-12T02:09:33.896Z,97953.23
2019-02-12T02:10:35.287Z,97955.59
2019-02-12T02:11:36.624Z,97954.42
2019-02-12T02:12:38.198Z,97957.41
2019-02-12T02:13:39.661Z,97957.88
2019-02-12T02:14:40.908Z,97957.88
2019-02-12T02:15:42.299Z,97960.08
2019-02-12T02:16:43.892Z,97954.91
2019-02-12T02:17:45.216Z,97962.73
2019-02-12T02:18:46.736Z,97957.08
2019-02-12T02:19:48.107Z,97951.64
2019-02-12T02:20:49.505Z,97951.64
2019-02-12T02:21:51.010Z,97953.28
2019-02-12T02:22:52.417Z,97960.55
2019-02-12T02:23:54.886Z,97960.55
2019-02-12T02:24:56.191Z,97949.89
2019-02-12T02:25:57.769Z,97954.26
2019-02-12T02:27:00.023Z,97960.08
2019-02-12T02:28:01.411Z,97967.20
2019-02-12T02:29:02.669Z,97961.41
2019-02-12T02:30:06.777Z,97961.41
2019-02-12T02:31:10.236Z,97964.19
2019-02-12T02:32:13.120Z,97966.84
2019-02-12T02:33:14.347Z,97963.69
2019-02-12T02:34:17.236Z,97965.82
2019-02-12T02:35:18.757Z,97971.45
2019-02-12T02:36:20.008Z,97975.97
2019-02-12T02:37:21.486Z,97983.43
2019-02-12T02:38:23.046Z,97970.12
2019-02-12T02:39:24.610Z,97974.11
2019-02-12T02:40:26.071Z,97985.09
2019-02-12T02:41:27.351Z,97979.77
2019-02-12T02:42:28.621Z,97986.20
2019-02-12T02:43:29.960Z,97986.73
2019-02-12T02:44:31.304Z,97971.78
2019-02-12T02:45:32.531Z,97971.78
2019-02-12T02:46:33.820Z,98002.28
2019-02-12T02:47:35.132Z,97988.86
2019-02-12T02:48:36.537Z,97999.81
2019-02-12T02:49:37.977Z,98000.84
2019-02-12T02:50:39.257Z,97998.17
2019-02-12T02:51:40.724Z,98006.97
2019-02-12T02:52:42.083Z,98006.97
2019-02-12T02:53:43.431Z,98010.95
2019-02-12T02:54:44.807Z,98014.64
2019-02-12T02:55:46.291Z,98014.31
2019-02-12T02:56:47.561Z,98008.67
2019-02-12T02:57:48.871Z,98020.96
2019-02-12T02:58:50.135Z,98020.96
2019-02-12T02:59:51.426Z,98017.99
2019-02-12T03:00:52.705Z,98017.99
2019-02-12T03:01:54.131Z,98019.47
2019-02-12T03:02:55.756Z,98019.47
2019-02-12T03:03:57.007Z,98028.79
2019-02-12T03:04:58.479Z,98030.28
2019-02-12T03:05:59.896Z,98028.11
2019-02-12T03:07:01.146Z,98029.14
2019-02-12T03:08:02.879Z,98027.50
2019-02-12T03:09:06.351Z,98040.09
2019-02-12T03:10:09.884Z,98043.05
2019-02-12T03:11:11.272Z,98043.05
2019-02-12T03:12:12.730Z,98045.11
2019-02-12T03:13:13.991Z,98042.86
2019-02-12T03:14:17.645Z,98052.67
2019-02-12T03:15:19.048Z,98052.92
2019-02-12T03:16:20.311Z,98046.98
2019-02-12T03:17:21.811Z,98043.72
2019-02-12T03:18:23.134Z,98043.72
2019-02-12T03:19:24.420Z,98055.38
2019-02-12T03:20:25.826Z,98058.72
2019-02-12T03:21:27.205Z,98057.70
2019-02-12T03:22:28.647Z,98047.89
2019-02-12T03:23:29.963Z,98066.33
2019-02-12T03:24:31.441Z,98056.19
2019-02-12T03:25:32.737Z,98056.30
2019-02-12T03:26:33.974Z,98073.91
2019-02-12T03:27:35.222Z,98067.78
2019-02-12T03:28:36.759Z,98069.61
2019-02-12T03:29:38.033Z,98077.59
2019-02-12T03:30:40.627Z,98070.63
2019-02-12T03:31:42.028Z,98070.63
2019-02-12T03:32:43.664Z,98069.80
2019-02-12T03:33:45.053Z,98069.11
2019-02-12T03:34:46.309Z,98072.58
2019-02-12T03:35:47.882Z,98090.19
2019-02-12T03:36:50.553Z,98093.50
2019-02-12T03:37:51.841Z,98094.52
2019-02-12T03:38:53.100Z,98092.16
2019-02-12T03:39:54.538Z,98088.17
2019-02-12T03:40:55.948Z,98095.97
2019-02-12T03:41:57.198Z,98087.27
2019-02-12T03:42:58.716Z,98087.27
2019-02-12T03:44:00.047Z,98104.38
2019-02-12T03:45:01.318Z,98113.39
2019-02-12T03:46:02.772Z,98113.39
2019-02-12T03:47:04.253Z,98111.72
2019-02-12T03:48:05.545Z,98111.81
2019-02-12T03:49:06.972Z,98111.48
2019-02-12T03:50:09.889Z,98121.81
2019-02-12T03:51:11.327Z,98111.17
2019-02-12T03:52:13.302Z,98113.52
2019-02-12T03:53:14.699Z,98117.52
2019-02-12T03:54:15.951Z,98117.52
2019-02-12T03:55:17.221Z,98125.19
2019-02-12T03:56:18.760Z,98119.86
2019-02-12T03:57:20.146Z,98127.36
2019-02-12T03:58:21.424Z,98139.33
2019-02-12T03:59:22.943Z,98139.33
2019-02-12T04:00:24.429Z,98135.22
2019-02-12T04:01:25.702Z,98139.89
2019-02-12T04:02:27.294Z,98137.41
2019-02-12T04:03:29.221Z,98137.41
2019-02-12T04:04:30.775Z,98142.64
2019-02-12T04:05:33.300Z,98146.30
2019-02-12T04:06:34.799Z,98146.30
2019-02-12T04:07:36.148Z,98137.20
2019-02-12T04:08:37.879Z,98137.20
2019-02-12T04:09:39.377Z,98130.45
2019-02-12T04:10:40.740Z,98143.08
2019-02-12T04:11:42.249Z,98139.39
2019-02-12T04:12:43.621Z,98143.20
2019-02-12T04:13:44.869Z,98138.19
2019-02-12T04:14:46.350Z,98147.50
2019-02-12T04:15:47.883Z,98144.19
2019-02-12T04:16:49.242Z,98136.55
2019-02-12T04:17:50.860Z,98140.54
2019-02-12T04:18:52.311Z,98148.83
2019-02-12T04:19:54.612Z,98146.97
2019-02-12T04:20:55.924Z,98146.97
2019-02-12T04:21:57.452Z,98152.30
2019-02-12T04:22:58.876Z,98156.56
2019-02-12T04:24:00.208Z,98149.66
2019-02-12T04:25:01.553Z,98152.64
2019-02-12T04:26:03.018Z,98155.36
2019-02-12T04:27:04.272Z,98149.11
2019-02-12T04:28:07.277Z,98149.11
2019-02-12T04:29:08.739Z,98160.77
2019-02-12T04:30:10.092Z,98156.47
2019-02-12T04:31:11.328Z,98156.97
2019-02-12T04:32:12.765Z,98156.97
2019-02-12T04:33:16.534Z,98165.13
2019-02-12T04:34:17.992Z,98166.46
2019-02-12T04:35:19.235Z,98166.46
2019-02-12T04:36:20.584Z,98148.48
2019-02-12T04:37:21.982Z,98155.45
2019-02-12T04:38:23.356Z,98157.70
2019-02-12T04:39:24.860Z,98157.22
2019-02-12T04:40:26.213Z,98162.66
2019-02-12T04:41:27.745Z,98154.49
2019-02-12T04:42:29.048Z,98161.95
2019-02-12T04:43:30.312Z,98161.95
2019-02-12T04:44:31.806Z,98162.59
2019-02-12T04:45:33.145Z,98150.10
2019-02-12T04:46:34.427Z,98160.75
2019-02-12T04:47:35.721Z,98160.75
2019-02-12T04:48:36.995Z,98154.49
2019-02-12T04:49:38.596Z,98153.16
2019-02-12T04:50:39.886Z,98153.47
2019-02-12T04:51:41.283Z,98141.31
2019-02-12T04:52:42.919Z,98148.46
2019-02-12T04:53:44.181Z,98162.39
2019-02-12T04:54:45.770Z,98168.23
2019-02-12T04:55:47.397Z,98168.23
2019-02-12T04:56:48.629Z,98170.59
2019-02-12T04:57:49.981Z,98176.59
2019-02-12T04:58:51.428Z,98168.91
2019-02-12T04:59:52.749Z,98180.08
2019-02-12T05:00:54.190Z,98180.08
2019-02-12T05:01:55.795Z,98186.98
2019-02-12T05:02:57.107Z,98186.98
2019-02-12T05:03:58.555Z,98183.39
2019-02-12T05:05:00.360Z,98185.27
2019-02-12T05:06:01.770Z,98174.31
2019-02-12T05:07:03.048Z,98188.45
2019-02-12T05:08:04.505Z,98166.34
2019-02-12T05:09:14.804Z,98187.62
2019-02-12T05:10:28.846Z,98185.67
2019-02-12T05:11:30.076Z,98185.67
2019-02-12T05:12:31.580Z,98185.36
2019-02-12T05:13:32.864Z,98194.85
2019-02-12T05:14:34.144Z,98189.34
2019-02-12T05:15:35.467Z,98189.34
2019-02-12T05:16:37.099Z,98195.28
2019-02-12T05:17:38.500Z,98192.32
2019-02-12T05:18:39.770Z,98197.45
2019-02-12T05:19:41.024Z,98197.45
2019-02-12T05:20:43.080Z,98200.36
2019-02-12T05:21:44.392Z,98203.20
2019-02-12T05:22:45.693Z,98203.20
2019-02-12T05:23:46.962Z,98202.76
2019-02-12T05:24:48.266Z,98202.76
2019-02-12T05:25:49.498Z,98194.10
2019-02-12T05:26:50.965Z,98197.88
2019-02-12T05:27:52.295Z,98206.52
2019-02-12T05:28:53.788Z,98200.66
2019-02-12T05:29:55.280Z,98209.97
2019-02-12T05:30:56.646Z,98209.48
2019-02-12T05:31:58.067Z,98215.82
2019-02-12T05:32:59.655Z,98215.82
2019-02-12T05:34:00.944Z,98202.13
2019-02-12T05:35:02.352Z,98223.93
2019-02-12T05:36:04.715Z,98223.93
2019-02-12T05:37:06.129Z,98199.47
2019-02-12T05:38:07.637Z,98217.95
2019-02-12T05:39:09.001Z,98217.95
2019-02-12T05:40:10.379Z,98220.62
2019-02-12T05:41:11.762Z,98221.64
2019-02-12T05:42:13.798Z,98214.49
2019-02-12T05:43:15.347Z,98235.77
2019-02-12T05:44:16.651Z,98229.30
2019-02-12T05:45:17.893Z,98234.49
2019-02-12T05:46:19.461Z,98227.90
2019-02-12T05:47:20.716Z,98227.90
2019-02-12T05:48:22.042Z,98227.27
2019-02-12T05:49:23.546Z,98232.59
2019-02-12T05:50:25.012Z,98235.25
2019-02-12T05:51:26.482Z,98238.41
2019-02-12T05:52:27.895Z,98239.95
2019-02-12T05:53:29.348Z,98239.95
2019-02-12T05:54:30.753Z,98243.02
2019-02-12T05:55:32.325Z,98246.07
2019-02-12T05:56:33.590Z,98245.41
2019-02-12T05:57:35.563Z,98244.79
2019-02-12T05:58:36.839Z,98248.59
2019-02-12T05:59:38.605Z,98248.59
2019-02-12T06:00:40.123Z,98241.64
2019-02-12T06:01:41.810Z,98243.59
2019-02-12T06:02:43.144Z,98243.73
2019-02-12T06:03:44.456Z,98248.87
2019-02-12T06:04:46.851Z,98258.84
2019-02-12T06:05:48.132Z,98254.05
2019-02-12T06:06:49.812Z,98255.06
2019-02-12T06:07:51.243Z,98256.39
2019-02-12T06:08:52.482Z,98256.39
2019-02-12T06:09:53.785Z,98251.75
2019-02-12T06:10:55.049Z,98259.91
2019-02-12T06:11:57.461Z,98259.91
2019-02-12T06:12:58.710Z,98262.78
2019-02-12T06:14:00.246Z,98257.15
2019-02-12T06:15:01.630Z,98262.78
2019-02-12T06:16:03.075Z,98262.78
2019-02-12T06:17:04.674Z,98268.09
2019-02-12T06:18:05.948Z,98269.12
2019-02-12T06:19:07.439Z,98273.28
2019-02-12T06:20:08.826Z,98273.28
2019-02-12T06:21:10.113Z,98276.61
2019-02-12T06:22:11.576Z,98278.16
2019-02-12T06:23:13.001Z,98275.81
2019-02-12T06:24:14.268Z,98282.45
2019-02-12T06:25:15.683Z,98291.77
2019-02-12T06:26:17.108Z,98278.47
2019-02-12T06:27:18.449Z,98284.09
2019-02-12T06:28:19.730Z,98292.08
2019-02-12T06:29:20.999Z,98292.08
2019-02-12T06:30:22.342Z,98285.25
2019-02-12T06:31:23.708Z,98291.72
2019-02-12T06:32:25.228Z,98291.72
2019-02-12T06:33:26.533Z,98296.83
2019-02-12T06:34:27.853Z,98290.39
2019-02-12T06:35:29.098Z,98291.19
2019-02-12T06:36:30.661Z,98298.98
2019-02-12T06:37:31.981Z,98295.49
2019-02-12T06:38:33.314Z,98300.63
2019-02-12T06:39:34.688Z,98300.63
2019-02-12T06:40:35.967Z,98302.09
2019-02-12T06:41:37.342Z,98298.42
2019-02-12T06:42:38.636Z,98307.73
2019-02-12T06:43:40.216Z,98312.38
2019-02-12T06:44:41.587Z,98312.38
2019-02-12T06:45:42.871Z,98307.69
2019-02-12T06:46:44.232Z,98307.69
2019-02-12T06:47:45.522Z,98321.47
2019-02-12T06:48:46.803Z,98318.19
2019-02-12T06:49:48.459Z,98317.56
2019-02-12T06:50:49.821Z,98319.56
2019-02-12T06:51:51.104Z,98326.59
2019-02-12T06:52:52.387Z,98320.75
2019-02-12T06:53:53.601Z,98320.75
2019-02-12T06:54:55.135Z,98324.61
2019-02-12T06:55:56.443Z,98328.59
2019-02-12T06:56:57.839Z,98328.59
2019-02-12T06:57:59.302Z,98323.67
2019-02-12T06:59:00.624Z,98322.16
2019-02-12T07:00:03.779Z,98336.08
2019-02-12T07:01:05.229Z,98332.58
2019-02-12T07:02:43.946Z,98337.41
2019-02-12T07:03:51.706Z,98334.93
2019-02-12T07:04:52.946Z,98309.36
2019-02-12T07:06:01.089Z,98333.91
2019-02-12T07:07:09.168Z,98336.92
2019-02-12T07:08:26.506Z,98325.27
2019-02-12T07:09:31.583Z,98325.27
2019-02-12T07:10:32.906Z,98346.47
2019-02-12T07:12:11.657Z,98334.84
2019-02-12T07:13:25.130Z,98334.84
2019-02-12T07:14:39.604Z,98344.78
2019-02-12T07:15:41.068Z,98338.63
2019-02-12T07:16:58.000Z,98332.81
2019-02-12T07:18:12.315Z,98335.47
2019-02-12T07:19:17.474Z,98328.12
2019-02-12T07:20:37.818Z,98328.12
2019-02-12T07:21:58.069Z,98337.56
2019-02-12T07:23:21.369Z,98338.54
2019-02-12T07:24:35.205Z,98342.14
2019-02-12T07:25:49.386Z,98344.94
2019-02-12T07:27:06.437Z,98350.25
2019-02-12T07:28:14.370Z,98349.58
2019-02-12T07:29:22.287Z,98354.20
2019-02-12T07:30:39.833Z,98348.17
2019-02-12T07:32:07.023Z,98356.95
2019-02-12T07:33:23.568Z,98361.38
2019-02-12T07:34:28.613Z,98347.37
2019-02-12T07:36:04.081Z,98346.49
2019-02-12T07:37:12.151Z,98346.49
2019-02-12T07:38:33.963Z,98369.06
2019-02-12T07:39:45.027Z,98370.57
2019-02-12T07:41:04.959Z,98367.11
2019-02-12T07:42:21.747Z,98375.27
2019-02-12T07:43:26.899Z,98378.11
2019-02-12T07:44:34.643Z,98375.63
2019-02-12T07:45:42.697Z,98373.98
2019-02-12T07:47:11.746Z,98379.13
2019-02-12T07:48:25.737Z,98379.13
2019-02-12T07:49:43.127Z,98376.28
2019-02-12T07:51:03.306Z,98375.13
2019-02-12T07:52:11.314Z,98375.13
2019-02-12T07:53:19.459Z,98382.28
2019-02-12T07:54:30.768Z,98386.09
2019-02-12T07:55:51.523Z,98382.63
2019-02-12T07:57:02.502Z,98379.13
2019-02-12T07:58:31.707Z,98379.13
2019-02-12T07:59:36.861Z,98395.41
2019-02-12T08:01:02.106Z,98388.44
2019-02-12T08:02:10.644Z,98392.92
2019-02-12T08:03:21.845Z,98388.44
2019-02-12T08:04:53.970Z,98401.74
2019-02-12T08:06:15.876Z,98402.05
2019-02-12T08:07:41.090Z,98408.57
2019-02-12T08:08:46.146Z,98408.75
2019-02-12T08:09:57.738Z,98398.63
2019-02-12T08:11:11.188Z,98398.63
2019-02-12T08:12:17.720Z,98403.25
2019-02-12T08:13:22.822Z,98407.55
2019-02-12T08:14:45.770Z,98415.05
2019-02-12T08:16:02.828Z,98411.89
2019-02-12T08:17:10.955Z,98425.19
2019-02-12T08:18:46.186Z,98425.19
2019-02-12T08:20:16.597Z,98424.36
2019-02-12T08:21:30.777Z,98421.70
2019-02-12T08:22:53.081Z,98415.53
2019-02-12T08:24:13.197Z,98423.03
2019-02-12T08:25:30.437Z,98425.51
2019-02-12T08:26:38.549Z,98424.67
2019-02-12T08:27:55.377Z,98418.16
2019-02-12T08:29:15.704Z,98435.45
2019-02-12T08:30:26.964Z,98435.62
2019-02-12T08:31:38.051Z,98442.28
2019-02-12T08:33:09.387Z,98440.63
2019-02-12T08:34:20.611Z,98438.86
2019-02-12T08:35:31.649Z,98438.86
2019-02-12T08:36:36.784Z,98458.17
2019-02-12T08:37:58.763Z,98446.87
2019-02-12T08:39:06.823Z,98452.20
2019-02-12T08:40:27.635Z,98447.19
2019-02-12T08:41:49.650Z,98450.20
2019-02-12T08:42:54.718Z,98449.18
2019-02-12T08:44:05.776Z,98449.36
2019-02-12T08:45:32.082Z,98444.04
2019-02-12T08:46:59.788Z,98454.50
2019-02-12T08:48:20.444Z,98460.31
2019-02-12T08:49:28.732Z,98435.56
2019-02-12T08:50:48.751Z,98440.89
2019-02-12T08:51:56.812Z,98463.99
2019-02-12T08:53:04.967Z,98463.99
2019-02-12T08:54:22.252Z,98464.62
2019-02-12T08:55:33.563Z,98463.81
2019-02-12T08:56:53.808Z,98466.79
2019-02-12T08:58:08.104Z,98467.49
2019-02-12T08:59:22.252Z,98466.34
2019-02-12T09:00:43.894Z,98466.34
2019-02-12T09:01:54.599Z,98467.04
2019-02-12T09:03:32.219Z,98474.49
2019-02-12T09:04:46.159Z,98468.69
2019-02-12T09:06:20.271Z,98468.69
2019-02-12T09:07:28.663Z,98483.31
2019-02-12T09:08:54.721Z,98479.50
2019-02-12T09:10:16.489Z,98479.50
2019-02-12T09:11:24.691Z,98485.84
2019-02-12T09:12:53.674Z,98485.84
2019-02-12T09:14:11.071Z,98484.68
2019-02-12T09:15:32.921Z,98493.16
2019-02-12T09:16:40.733Z,98491.93
2019-02-12T09:17:49.154Z,98489.41
2019-02-12T09:18:59.854Z,98490.56
2019-02-12T09:20:19.897Z,98498.86
2019-02-12T09:21:40.258Z,98494.34
2019-02-12T09:23:04.027Z,98496.02
2019-02-12T09:24:12.094Z,98503.16
2019-02-12T09:25:20.382Z,98503.34
2019-02-12T09:26:43.949Z,98489.55
2019-02-12T09:28:00.495Z,98496.20
2019-02-12T09:29:11.653Z,98496.20
2019-02-12T09:30:28.761Z,98493.54
2019-02-12T09:31:53.921Z,98495.36
2019-02-12T09:33:01.789Z,98495.36
2019-02-12T09:34:21.757Z,98497.84
2019-02-12T09:35:46.819Z,98503.16
2019-02-12T09:36:55.977Z,98505.65
2019-02-12T09:38:25.401Z,98500.33
2019-02-12T09:39:54.237Z,98508.48
2019-02-12T09:41:17.244Z,98514.44
2019-02-12T09:42:28.064Z,98503.80
2019-02-12T09:43:45.182Z,98504.95
2019-02-12T09:44:53.454Z,98504.95
2019-02-12T09:46:10.090Z,98513.39
2019-02-12T09:47:33.224Z,98513.39
2019-02-12T09:48:38.330Z,98521.20
2019-02-12T09:49:52.924Z,98518.53
2019-02-12T09:50:58.127Z,98518.53
2019-02-12T09:52:22.977Z,98518.53
2019-02-12T09:53:30.991Z,98523.67
2019-02-12T09:55:09.174Z,98514.36
2019-02-12T09:56:32.985Z,98519.16
2019-02-12T09:57:44.266Z,98530.33
2019-02-12T09:59:04.849Z,98528.02
2019-02-12T10:00:12.911Z,98528.02
2019-02-12T10:01:18.077Z,98529.73
2019-02-12T10:02:26.229Z,98535.55
2019-02-12T10:03:34.404Z,98524.41
2019-02-12T10:05:00.027Z,98524.41
2019-02-12T10:06:21.523Z,98537.47
2019-02-12T10:07:40.800Z,98539.81
2019-02-12T10:09:01.287Z,98539.67
2019-02-12T10:10:23.509Z,98546.19
2019-02-12T10:11:43.921Z,98538.37
2019-02-12T10:12:58.219Z,98543.70
2019-02-12T10:14:21.831Z,98539.39
2019-02-12T10:15:36.198Z,98546.36
2019-02-12T10:16:47.296Z,98546.36
2019-02-12T10:18:17.060Z,98551.19
2019-02-12T10:19:25.348Z,98551.19
2019-02-12T10:20:39.511Z,98547.02
2019-02-12T10:21:56.970Z,98551.16
2019-02-12T10:23:36.901Z,98548.50
2019-02-12T10:24:57.657Z,98548.50
2019-02-12T10:26:02.739Z,98550.28
2019-02-12T10:27:32.092Z,98543.63
2019-02-12T10:28:53.846Z,98551.09
2019-02-12T10:30:02.183Z,98550.42
2019-02-12T10:31:09.963Z,98555.22
2019-02-12T10:32:11.189Z,98547.77
2019-02-12T10:33:12.628Z,98551.93
2019-02-12T10:34:14.025Z,98548.25
2019-02-12T10:35:16.742Z,98538.28
2019-02-12T10:36:18.132Z,98553.55
2019-02-12T10:37:19.383Z,98551.20
2019-02-12T10:38:21.510Z,98547.03
2019-02-12T10:39:23.164Z,98540.20
2019-02-12T10:40:24.436Z,98545.84
2019-02-12T10:41:25.848Z,98544.83
2019-02-12T10:42:27.118Z,98551.80
2019-02-12T10:43:28.571Z,98551.80
2019-02-12T10:44:29.907Z,98552.45
2019-02-12T10:45:31.341Z,98553.79
2019-02-12T10:46:32.925Z,98547.31
2019-02-12T10:47:34.521Z,98551.80
2019-02-12T10:48:35.786Z,98529.70
2019-02-12T10:49:37.262Z,98541.81
2019-02-12T10:50:38.664Z,98541.81
2019-02-12T10:51:40.062Z,98539.61
2019-02-12T10:52:41.635Z,98552.53
2019-02-12T10:53:42.993Z,98550.88
2019-02-12T10:54:44.265Z,98552.21
2019-02-12T10:55:45.600Z,98555.05
2019-02-12T10:56:48.695Z,98553.41
2019-02-12T10:57:50.034Z,98553.41
2019-02-12T10:58:51.330Z,98555.75
2019-02-12T10:59:52.583Z,98544.72
2019-02-12T11:00:54.045Z,98552.35
2019-02-12T11:01:55.529Z,98555.64
2019-02-12T11:02:57.022Z,98553.64
2019-02-12T11:03:59.563Z,98554.59
2019-02-12T11:05:01.083Z,98554.59
2019-02-12T11:06:02.349Z,98546.92
2019-02-12T11:07:03.798Z,98553.05
2019-02-12T11:08:05.344Z,98553.05
2019-02-12T11:09:07.343Z,98544.22
2019-02-12T11:10:08.894Z,98543.06
2019-02-12T11:11:10.299Z,98554.02
2019-02-12T11:12:11.639Z,98548.20
2019-02-12T11:13:13.904Z,98546.88
2019-02-12T11:14:15.237Z,98550.16
2019-02-12T11:15:16.904Z,98550.48
2019-02-12T11:16:18.694Z,98551.14
2019-02-12T11:17:20.447Z,98551.14
2019-02-12T11:18:21.806Z,98552.61
2019-02-12T11:19:23.068Z,98552.61
2019-02-12T11:20:24.634Z,98552.92
2019-02-12T11:21:27.059Z,98558.07
2019-02-12T11:22:28.471Z,98562.38
2019-02-12T11:23:29.721Z,98562.38
2019-02-12T11:24:35.694Z,98532.07
2019-02-12T11:25:34.472Z,98549.69
2019-02-12T11:26:35.950Z,98550.36
2019-02-12T11:27:37.880Z,98547.16
2019-02-12T11:28:39.279Z,98547.16
2019-02-12T11:29:40.510Z,98544.33
2019-02-12T11:30:41.834Z,98553.95
2019-02-12T11:31:43.148Z,98560.30
2019-02-12T11:32:44.418Z,98551.30
2019-02-12T11:33:45.782Z,98557.11
2019-02-12T11:34:47.086Z,98561.95
2019-02-12T11:35:48.387Z,98543.31
2019-02-12T11:36:49.635Z,98549.26
2019-02-12T11:37:51.060Z,98549.26
2019-02-12T11:38:52.338Z,98555.88
2019-02-12T11:39:53.635Z,98555.38
2019-02-12T11:40:55.114Z,98556.19
2019-02-12T11:41:56.565Z,98553.66
2019-02-12T11:42:57.841Z,98542.20
2019-02-12T11:44:00.182Z,98560.84
2019-02-12T11:45:01.580Z,98561.34
2019-02-12T11:46:03.927Z,98562.98
2019-02-12T11:47:05.553Z,98559.20
2019-02-12T11:48:06.988Z,98559.20
2019-02-12T11:49:08.391Z,98561.20
2019-02-12T11:50:10.249Z,98555.88
2019-02-12T11:51:11.629Z,98573.70
2019-02-12T11:52:12.985Z,98562.04
2019-02-12T11:53:14.511Z,98569.19
2019-02-12T11:54:15.987Z,98559.55
2019-02-12T11:55:17.374Z,98561.06
2019-02-12T11:56:18.887Z,98558.41
2019-02-12T11:57:20.397Z,98566.57
2019-02-12T11:58:21.775Z,98577.22
2019-02-12T11:59:23.270Z,98569.44
2019-02-12T12:00:32.100Z,98569.44
2019-02-12T12:01:33.397Z,98577.09
2019-02-12T12:02:40.680Z,98573.30
2019-02-12T12:03:37.909Z,98573.30
2019-02-12T12:04:39.450Z,98582.80
2019-02-12T12:05:40.751Z,98573.66
2019-02-12T12:06:42.160Z,98577.02
2019-02-12T12:07:43.476Z,98579.86
2019-02-12T12:08:44.835Z,98579.02
2019-02-12T12:09:46.298Z,98574.22
2019-02-12T12:10:47.618Z,98584.03
2019-02-12T12:11:48.898Z,98573.38
2019-02-12T12:12:50.163Z,98581.58
2019-02-12T12:13:51.449Z,98578.57
2019-02-12T12:14:53.196Z,98578.57
2019-02-12T12:15:54.434Z,98584.11
2019-02-12T12:16:55.826Z,98584.59
2019-02-12T12:17:57.119Z,98584.59
2019-02-12T12:18:58.396Z,98578.78
2019-02-12T12:19:59.744Z,98587.08
2019-02-12T12:21:01.184Z,98587.75
2019-02-12T12:22:02.541Z,98586.11
2019-02-12T12:23:04.074Z,98587.44
2019-02-12T12:24:06.344Z,98594.62
2019-02-12T12:25:09.630Z,98596.44
2019-02-12T12:26:10.858Z,98600.44
2019-02-12T12:27:12.202Z,98599.28
2019-02-12T12:28:13.475Z,98598.09
2019-02-12T12:29:15.022Z,98597.78
2019-02-12T12:30:16.290Z,98598.30
2019-02-12T12:31:17.643Z,98597.45
2019-02-12T12:32:19.089Z,98603.09
2019-02-12T12:33:20.623Z,98603.09
2019-02-12T12:34:22.035Z,98614.59
2019-02-12T12:35:23.484Z,98613.43
2019-02-12T12:36:24.898Z,98609.97
2019-02-12T12:37:26.370Z,98611.78
2019-02-12T12:38:29.617Z,98618.44
2019-02-12T12:39:30.998Z,98604.30
2019-02-12T12:40:32.275Z,98606.28
2019-02-12T12:41:33.721Z,98607.09
2019-02-12T12:42:34.945Z,98612.42
2019-02-12T12:43:36.212Z,98610.28